Time;durP1;ratioP1;P1;durP2;ratioP2;P2;SDS_P1;SDS_P2;PMS_P1;PMS_P2;Temp;Humidity;BMP_temperature;BMP_pressure;BME280_temperature;BME280_humidity;BME280_pressure;Samples;Min_cycle;Max_cycle;Signal;HPM_P1;HPM_P2
2021/01/11 00:02:15;;;;;;;67.75;34.00;;;;;;;;;;5024555;28;20021;-75
2021/01/11 00:04:42;;;;;;;68.40;32.53;;;;;;;;;;5026818;28;20029;-75
2021/01/11 00:07:11;;;;;;;70.05;35.13;;;;;;;;;;5028434;28;20517;-75
2021/01/11 00:09:37;;;;;;;67.90;31.83;;;;;;;;;;5028594;28;20557;-75
2021/01/11 00:12:04;;;;;;;41.70;22.10;;;;;;;;;;5026118;28;20025;-75
2021/01/11 00:14:30;;;;;;;38.28;18.95;;;;;;;;;;5027978;28;20030;-75
2021/01/11 00:16:56;;;;;;;33.25;16.55;;;;;;;;;;5027233;28;20018;-75
2021/01/11 00:19:22;;;;;;;28.08;16.20;;;;;;;;;;5027152;28;20028;-75
2021/01/11 00:21:51;;;;;;;32.33;15.95;;;;;;;;;;5026103;28;20063;-75
2021/01/11 00:24:17;;;;;;;30.20;16.05;;;;;;;;;;5022454;28;20029;-75
2021/01/11 00:26:53;;;;;;;26.90;15.63;;;;;;;;;;5016887;28;20540;-76
2021/01/11 00:29:20;;;;;;;42.13;20.90;;;;;;;;;;5014504;28;20464;-75
2021/01/11 00:31:46;;;;;;;46.40;22.80;;;;;;;;;;5013098;28;20395;-74
2021/01/11 00:34:12;;;;;;;49.33;24.13;;;;;;;;;;5011871;28;20030;-75
2021/01/11 00:36:38;;;;;;;60.00;29.42;;;;;;;;;;5017112;28;20493;-75
2021/01/11 00:39:05;;;;;;;49.65;21.92;;;;;;;;;;5029128;28;20025;-75
2021/01/11 00:41:31;;;;;;;52.55;28.52;;;;;;;;;;5028518;28;20079;-75
2021/01/11 00:43:57;;;;;;;59.80;30.25;;;;;;;;;;5024467;28;20053;-75
2021/01/11 00:46:27;;;;;;;62.88;33.78;;;;;;;;;;5028605;28;20087;-75
2021/01/11 00:48:53;;;;;;;53.92;28.42;;;;;;;;;;5025521;28;20009;-75
2021/01/11 00:51:19;;;;;;;69.30;35.45;;;;;;;;;;5028872;28;20045;-75
2021/01/11 00:53:46;;;;;;;66.65;35.13;;;;;;;;;;5026721;28;20018;-75
2021/01/11 00:56:15;;;;;;;61.80;32.67;;;;;;;;;;5030753;28;20064;-74
2021/01/11 00:58:41;;;;;;;66.22;29.38;;;;;;;;;;5031084;28;20121;-76
2021/01/11 01:01:08;;;;;;;64.10;31.65;;;;;;;;;;5031967;28;20021;-75
2021/01/11 01:03:35;;;;;;;68.85;37.75;;;;;;;;;;5027959;28;20064;-75
2021/01/11 01:06:01;;;;;;;69.55;35.70;;;;;;;;;;5032411;28;20029;-75
2021/01/11 01:08:27;;;;;;;64.40;32.00;;;;;;;;;;5032767;28;20029;-75
2021/01/11 01:10:53;;;;;;;62.70;32.70;;;;;;;;;;5032219;28;20021;-75
2021/01/11 01:13:19;;;;;;;68.38;33.03;;;;;;;;;;5029470;28;20025;-75
2021/01/11 01:15:45;;;;;;;34.70;18.33;;;;;;;;;;5031961;28;20029;-74
2021/01/11 01:18:11;;;;;;;64.22;32.88;;;;;;;;;;5031214;28;20094;-74
2021/01/11 01:20:37;;;;;;;62.85;32.13;;;;;;;;;;5032494;28;20493;-75
2021/01/11 01:23:03;;;;;;;68.78;35.38;;;;;;;;;;5029294;28;20037;-75
2021/01/11 01:25:29;;;;;;;61.55;34.42;;;;;;;;;;5031566;28;20030;-74
2021/01/11 01:27:56;;;;;;;66.03;34.53;;;;;;;;;;5033013;28;20520;-75
2021/01/11 01:30:22;;;;;;;60.35;29.83;;;;;;;;;;5031667;28;20041;-75
2021/01/11 01:32:48;;;;;;;58.60;26.50;;;;;;;;;;5028936;28;20445;-74
2021/01/11 01:35:14;;;;;;;66.82;33.92;;;;;;;;;;5030517;28;20476;-74
2021/01/11 01:37:40;;;;;;;68.60;34.90;;;;;;;;;;5032213;28;20017;-76
2021/01/11 01:40:07;;;;;;;66.18;34.03;;;;;;;;;;5030853;28;20111;-75
2021/01/11 01:42:33;;;;;;;66.97;34.35;;;;;;;;;;5029755;28;20042;-74
2021/01/11 01:44:59;;;;;;;59.85;27.00;;;;;;;;;;5032973;28;20100;-74
2021/01/11 01:47:26;;;;;;;48.78;23.30;;;;;;;;;;5031931;28;20017;-74
2021/01/11 01:49:52;;;;;;;67.03;30.38;;;;;;;;;;5031068;28;20071;-74
2021/01/11 01:52:19;;;;;;;45.05;25.05;;;;;;;;;;5029573;28;20283;-73
2021/01/11 01:54:45;;;;;;;54.85;29.75;;;;;;;;;;5031943;28;20167;-73
2021/01/11 01:57:11;;;;;;;59.10;31.02;;;;;;;;;;5032051;28;20030;-74
2021/01/11 01:59:37;;;;;;;58.03;26.73;;;;;;;;;;5030631;28;20417;-74
2021/01/11 02:02:04;;;;;;;65.10;31.23;;;;;;;;;;5028262;28;20025;-73
2021/01/11 02:04:30;;;;;;;61.67;26.98;;;;;;;;;;5029389;28;20032;-74
2021/01/11 02:06:58;;;;;;;52.67;26.48;;;;;;;;;;5031308;28;20064;-74
2021/01/11 02:09:31;;;;;;;54.53;28.80;;;;;;;;;;5030074;28;20029;-74
2021/01/11 02:12:02;;;;;;;44.17;22.50;;;;;;;;;;5029421;28;20284;-75
2021/01/11 02:14:28;;;;;;;49.05;25.77;;;;;;;;;;5030355;28;20103;-76
2021/01/11 02:17:00;;;;;;;50.78;25.17;;;;;;;;;;5030167;28;20099;-74
2021/01/11 02:19:26;;;;;;;;;;;;;;;;;;5029887;28;20044;-74
2021/01/11 02:21:52;;;;;;;50.47;21.75;;;;;;;;;;5028762;28;19999;-73
2021/01/11 02:24:36;;;;;;;48.70;26.45;;;;;;;;;;5029102;28;20025;-75
2021/01/11 02:27:19;;;;;;;47.55;26.80;;;;;;;;;;5030923;28;20104;-75
2021/01/11 02:30:04;;;;;;;53.08;26.65;;;;;;;;;;5028472;28;20485;-74
2021/01/11 02:32:30;;;;;;;48.05;26.42;;;;;;;;;;5028581;28;20611;-74
2021/01/11 02:34:58;;;;;;;40.78;22.52;;;;;;;;;;5031010;28;20055;-75
2021/01/11 02:37:25;;;;;;;28.50;12.93;;;;;;;;;;5029989;28;20486;-75
2021/01/11 02:39:52;;;;;;;13.30;6.15;;;;;;;;;;5030613;28;20104;-75
2021/01/11 02:42:18;;;;;;;11.07;4.47;;;;;;;;;;5029200;28;20437;-74
2021/01/11 02:44:44;;;;;;;9.40;4.70;;;;;;;;;;5028242;28;20094;-74
2021/01/11 02:47:10;;;;;;;10.60;4.95;;;;;;;;;;5030241;28;20127;-74
2021/01/11 02:49:41;;;;;;;10.45;3.95;;;;;;;;;;5030117;28;20490;-74
2021/01/11 02:52:19;;;;;;;9.15;3.72;;;;;;;;;;5027882;28;20025;-72
2021/01/11 02:54:56;;;;;;;8.23;3.03;;;;;;;;;;5028994;28;20041;-74
2021/01/11 02:57:27;;;;;;;8.70;3.40;;;;;;;;;;5031182;28;20033;-74
2021/01/11 02:59:55;;;;;;;4.97;2.55;;;;;;;;;;5028028;28;20033;-75
2021/01/11 03:02:23;;;;;;;8.07;2.80;;;;;;;;;;5027383;28;20110;-74
2021/01/11 03:04:50;;;;;;;6.53;2.35;;;;;;;;;;5029331;28;20382;-74
2021/01/11 03:07:16;;;;;;;7.22;2.78;;;;;;;;;;5027856;28;20118;-74
2021/01/11 03:09:43;;;;;;;7.35;2.90;;;;;;;;;;5028191;28;20180;-74
2021/01/11 03:12:10;;;;;;;20.60;9.23;;;;;;;;;;5027729;28;20164;-74
2021/01/11 03:14:36;;;;;;;34.08;16.95;;;;;;;;;;5029667;28;20029;-74
2021/01/11 03:17:02;;;;;;;35.20;18.30;;;;;;;;;;5029905;28;20022;-74
2021/01/11 03:19:28;;;;;;;29.10;13.10;;;;;;;;;;5029823;28;20120;-72
2021/01/11 03:21:55;;;;;;;39.72;22.25;;;;;;;;;;5028244;28;20044;-74
2021/01/11 03:24:21;;;;;;;22.15;11.38;;;;;;;;;;5028211;28;20033;-74
2021/01/11 03:26:48;;;;;;;39.80;20.48;;;;;;;;;;5030145;28;20021;-74
2021/01/11 03:29:15;;;;;;;39.85;18.48;;;;;;;;;;5028433;28;20513;-74
2021/01/11 03:31:41;;;;;;;38.50;20.05;;;;;;;;;;5029542;28;20037;-74
2021/01/11 03:34:08;;;;;;;26.38;16.23;;;;;;;;;;5027059;28;20390;-74
2021/01/11 03:36:34;;;;;;;26.95;13.27;;;;;;;;;;5028607;28;20055;-74
2021/01/11 03:39:00;;;;;;;15.43;8.88;;;;;;;;;;5029486;28;20509;-76
2021/01/11 03:41:26;;;;;;;14.82;6.13;;;;;;;;;;5029403;28;20052;-75
2021/01/11 03:43:52;;;;;;;10.65;5.25;;;;;;;;;;5027107;28;20021;-74
2021/01/11 03:46:19;;;;;;;13.75;6.43;;;;;;;;;;5029346;28;20026;-74
2021/01/11 03:48:45;;;;;;;11.15;5.78;;;;;;;;;;5027786;28;20559;-74
2021/01/11 03:51:12;;;;;;;10.48;4.78;;;;;;;;;;5029315;28;20036;-73
2021/01/11 03:53:38;;;;;;;10.93;5.03;;;;;;;;;;5026348;28;20080;-75
2021/01/11 03:56:07;;;;;;;12.00;6.80;;;;;;;;;;5029707;28;20028;-75
2021/01/11 03:58:33;;;;;;;17.10;6.55;;;;;;;;;;5027809;28;21091;-74
2021/01/11 04:01:00;;;;;;;16.13;5.25;;;;;;;;;;5027905;28;20028;-74
2021/01/11 04:03:29;;;;;;;13.10;5.72;;;;;;;;;;5025402;28;20108;-72
2021/01/11 04:05:55;;;;;;;12.07;5.35;;;;;;;;;;5028596;28;20033;-72
2021/01/11 04:08:22;;;;;;;14.05;5.00;;;;;;;;;;5027835;28;20083;-73
2021/01/11 04:10:48;;;;;;;17.38;6.15;;;;;;;;;;5016363;28;20053;-73
2021/01/11 04:13:14;;;;;;;10.30;4.70;;;;;;;;;;5026487;28;20110;-72
2021/01/11 04:15:40;;;;;;;14.77;6.20;;;;;;;;;;5027991;28;20083;-73
2021/01/11 04:18:06;;;;;;;12.30;5.78;;;;;;;;;;5030128;28;20048;-74
2021/01/11 04:20:32;;;;;;;14.40;6.20;;;;;;;;;;5028930;28;20437;-73
2021/01/11 04:22:59;;;;;;;15.00;6.50;;;;;;;;;;5024312;28;20224;-72
2021/01/11 04:25:25;;;;;;;10.93;5.57;;;;;;;;;;5029427;28;20044;-72
2021/01/11 04:27:58;;;;;;;17.30;6.60;;;;;;;;;;5027603;28;20034;-72
2021/01/11 04:30:24;;;;;;;11.32;6.45;;;;;;;;;;5029083;28;20405;-72
2021/01/11 04:32:50;;;;;;;13.05;6.32;;;;;;;;;;5026056;28;20030;-72
2021/01/11 04:35:16;;;;;;;10.52;6.05;;;;;;;;;;5029649;28;20029;-72
2021/01/11 04:37:43;;;;;;;17.20;4.40;;;;;;;;;;5027128;28;20025;-72
2021/01/11 04:40:10;;;;;;;12.38;5.75;;;;;;;;;;5028495;28;20026;-73
2021/01/11 04:42:48;;;;;;;8.05;4.13;;;;;;;;;;5025637;28;20025;-72
2021/01/11 04:45:15;;;;;;;12.40;4.53;;;;;;;;;;5026314;28;20510;-73
2021/01/11 04:47:41;;;;;;;11.35;5.47;;;;;;;;;;5027137;28;20044;-73
2021/01/11 04:50:08;;;;;;;10.52;4.32;;;;;;;;;;5027057;28;20033;-72
2021/01/11 04:52:34;;;;;;;15.48;6.55;;;;;;;;;;5025516;28;20508;-73
2021/01/11 04:55:05;;;;;;;11.63;5.07;;;;;;;;;;5044550;28;20045;-73
2021/01/11 04:57:33;;;;;;;17.83;6.15;;;;;;;;;;5029042;28;20064;-72
2021/01/11 05:00:03;;;;;;;10.55;4.45;;;;;;;;;;5028202;28;20026;-72
2021/01/11 05:02:30;;;;;;;17.05;6.53;;;;;;;;;;5026969;28;20025;-73
2021/01/11 05:04:57;;;;;;;9.57;4.50;;;;;;;;;;5025680;28;20053;-72
2021/01/11 05:07:23;;;;;;;13.75;5.72;;;;;;;;;;5027463;28;20115;-74
2021/01/11 05:09:50;;;;;;;13.10;5.18;;;;;;;;;;5028126;28;20033;-73
2021/01/11 05:12:16;;;;;;;16.60;5.57;;;;;;;;;;5024821;28;20320;-72
2021/01/11 05:14:42;;;;;;;12.68;4.68;;;;;;;;;;5027834;28;20030;-73
2021/01/11 05:17:13;;;;;;;9.73;3.78;;;;;;;;;;5028575;28;20405;-73
2021/01/11 05:19:39;;;;;;;11.95;3.15;;;;;;;;;;5027130;28;20025;-72
2021/01/11 05:22:11;;;;;;;6.93;1.73;;;;;;;;;;5025914;28;20017;-72
2021/01/11 05:24:39;;;;;;;12.20;3.08;;;;;;;;;;5026453;28;20497;-73
2021/01/11 05:27:06;;;;;;;11.40;3.58;;;;;;;;;;5028803;28;20021;-73
2021/01/11 05:29:32;;;;;;;6.30;1.98;;;;;;;;;;5026678;28;20022;-74
2021/01/11 05:31:59;;;;;;;9.27;2.60;;;;;;;;;;5027203;28;20537;-73
2021/01/11 05:34:44;;;;;;;13.32;3.72;;;;;;;;;;5027939;28;20112;-73
2021/01/11 05:37:10;;;;;;;8.63;2.90;;;;;;;;;;5027538;28;20060;-72
2021/01/11 05:39:36;;;;;;;13.07;1.88;;;;;;;;;;5028406;28;20072;-73
2021/01/11 05:42:02;;;;;;;6.38;2.88;;;;;;;;;;5029051;28;20018;-72
2021/01/11 05:44:29;;;;;;;8.32;2.38;;;;;;;;;;5030882;28;20056;-72
2021/01/11 05:47:01;;;;;;;14.02;3.65;;;;;;;;;;5030832;28;20021;-72
2021/01/11 05:49:28;;;;;;;8.73;2.60;;;;;;;;;;5026056;28;20131;-73
2021/01/11 05:51:54;;;;;;;10.10;2.65;;;;;;;;;;5026466;28;20083;-73
2021/01/11 05:54:27;;;;;;;8.73;2.95;;;;;;;;;;5028874;28;20132;-73
2021/01/11 05:56:59;;;;;;;8.43;2.67;;;;;;;;;;5029616;28;20037;-72
2021/01/11 05:59:25;;;;;;;16.92;3.33;;;;;;;;;;5030622;28;20574;-73
2021/01/11 06:01:59;;;;;;;10.15;3.47;;;;;;;;;;5032647;28;20022;-72
2021/01/11 06:04:25;;;;;;;9.07;2.83;;;;;;;;;;5029308;28;20083;-73
2021/01/11 06:06:54;;;;;;;8.25;2.97;;;;;;;;;;5026735;28;20041;-72
2021/01/11 06:09:21;;;;;;;7.07;2.13;;;;;;;;;;5028680;28;20044;-72
2021/01/11 06:11:49;;;;;;;10.50;2.70;;;;;;;;;;5028484;28;20524;-72
2021/01/11 06:14:18;;;;;;;9.32;2.55;;;;;;;;;;5028473;28;20587;-73
2021/01/11 06:16:44;;;;;;;6.85;2.28;;;;;;;;;;5031219;28;20108;-72
2021/01/11 06:19:10;;;;;;;9.02;2.40;;;;;;;;;;5019788;28;20176;-72
2021/01/11 06:21:36;;;;;;;7.75;2.42;;;;;;;;;;5026217;28;20025;-72
2021/01/11 06:24:17;;;;;;;9.50;2.65;;;;;;;;;;5021853;28;20013;-72
2021/01/11 06:26:46;;;;;;;6.95;3.22;;;;;;;;;;5029532;28;20026;-73
2021/01/11 06:29:29;;;;;;;16.00;2.17;;;;;;;;;;5027976;28;20052;-72
2021/01/11 06:32:16;;;;;;;8.82;2.33;;;;;;;;;;5017987;28;20113;-72
2021/01/11 06:34:43;;;;;;;13.18;2.78;;;;;;;;;;5025360;28;20081;-73
2021/01/11 06:37:19;;;;;;;11.05;2.35;;;;;;;;;;5028303;28;20036;-73
2021/01/11 06:39:46;;;;;;;10.30;2.92;;;;;;;;;;5030216;28;20013;-73
2021/01/11 06:42:12;;;;;;;15.18;2.88;;;;;;;;;;5028457;28;20025;-72
2021/01/11 06:44:42;;;;;;;9.98;3.30;;;;;;;;;;5029864;28;20041;-72
2021/01/11 06:47:11;;;;;;;7.68;3.20;;;;;;;;;;5031217;28;20033;-73
2021/01/11 06:49:38;;;;;;;9.43;4.38;;;;;;;;;;5031165;28;20017;-73
2021/01/11 06:52:09;;;;;;;14.10;3.67;;;;;;;;;;5031068;28;20486;-73
2021/01/11 06:54:36;;;;;;;16.15;3.88;;;;;;;;;;5028732;28;20024;-73
2021/01/11 06:57:09;;;;;;;9.55;2.83;;;;;;;;;;5040799;28;20021;-73
2021/01/11 06:59:38;;;;;;;14.13;3.28;;;;;;;;;;5024719;28;20022;-72
2021/01/11 07:02:20;;;;;;;12.38;3.47;;;;;;;;;;5028277;28;20017;-72
2021/01/11 07:04:47;;;;;;;13.60;4.80;;;;;;;;;;5029574;28;20259;-73
2021/01/11 07:07:17;;;;;;;16.17;3.35;;;;;;;;;;5027746;28;20386;-72
2021/01/11 07:10:11;;;;;;;9.90;2.63;;;;;;;;;;5029778;28;20060;-72
2021/01/11 07:12:37;;;;;;;7.47;3.13;;;;;;;;;;5022244;28;20037;-71
2021/01/11 07:15:07;;;;;;;20.45;7.97;;;;;;;;;;5028923;28;20028;-72
2021/01/11 07:17:37;;;;;;;21.20;10.18;;;;;;;;;;5024482;28;20340;-73
2021/01/11 07:20:04;;;;;;;20.92;9.85;;;;;;;;;;5023481;28;20096;-71
2021/01/11 07:22:30;;;;;;;22.27;10.18;;;;;;;;;;5023797;28;20022;-73
2021/01/11 07:24:56;;;;;;;25.48;13.65;;;;;;;;;;5015866;28;20061;-72
2021/01/11 07:27:22;;;;;;;20.13;10.13;;;;;;;;;;5000408;28;20567;-72
2021/01/11 07:29:48;;;;;;;23.95;10.15;;;;;;;;;;5011767;28;20113;-71
2021/01/11 07:32:14;;;;;;;22.10;9.38;;;;;;;;;;5004030;28;20029;-71
2021/01/11 07:34:40;;;;;;;21.05;9.18;;;;;;;;;;5028803;28;20540;-72
2021/01/11 07:37:13;;;;;;;23.13;9.65;;;;;;;;;;5019762;28;20032;-72
2021/01/11 07:39:40;;;;;;;22.05;9.48;;;;;;;;;;5029478;28;20029;-72
2021/01/11 07:42:07;;;;;;;25.73;10.20;;;;;;;;;;5027938;28;20290;-72
2021/01/11 07:44:36;;;;;;;24.77;9.38;;;;;;;;;;5030123;28;20036;-71
2021/01/11 07:47:02;;;;;;;17.73;10.02;;;;;;;;;;5029304;28;20502;-73
2021/01/11 07:49:30;;;;;;;22.60;12.70;;;;;;;;;;5029747;28;20463;-72
2021/01/11 07:52:01;;;;;;;22.27;11.20;;;;;;;;;;5037743;28;20025;-73
2021/01/11 07:54:27;;;;;;;29.85;12.45;;;;;;;;;;5030082;28;20037;-72
2021/01/11 07:56:53;;;;;;;15.68;8.38;;;;;;;;;;5028388;28;20056;-73
2021/01/11 07:59:20;;;;;;;26.40;12.48;;;;;;;;;;5028240;28;20030;-71
2021/01/11 08:01:47;;;;;;;24.40;12.13;;;;;;;;;;5031134;28;20100;-74
2021/01/11 08:04:14;;;;;;;24.58;12.05;;;;;;;;;;5024328;28;20518;-73
2021/01/11 08:06:44;;;;;;;21.60;10.75;;;;;;;;;;5030846;28;20628;-72
2021/01/11 08:09:12;;;;;;;21.27;11.32;;;;;;;;;;5024355;28;20067;-71
2021/01/11 08:11:39;;;;;;;21.25;10.68;;;;;;;;;;5024450;28;20112;-71
2021/01/11 08:14:08;;;;;;;26.15;7.85;;;;;;;;;;5019852;28;20048;-72
2021/01/11 08:16:35;;;;;;;16.08;6.88;;;;;;;;;;5038965;28;20029;-72
2021/01/11 08:19:08;;;;;;;20.35;11.02;;;;;;;;;;5020254;28;20033;-70
2021/01/11 08:21:35;;;;;;;21.67;11.48;;;;;;;;;;5025629;28;20033;-72
2021/01/11 08:24:05;;;;;;;24.13;12.57;;;;;;;;;;5026876;28;20021;-73
2021/01/11 08:26:32;;;;;;;23.52;12.52;;;;;;;;;;5030000;28;20029;-72
2021/01/11 08:28:58;;;;;;;18.95;10.52;;;;;;;;;;5025333;28;20034;-73
2021/01/11 08:31:25;;;;;;;24.95;12.52;;;;;;;;;;5026519;28;20561;-71
2021/01/11 08:33:51;;;;;;;23.02;12.18;;;;;;;;;;5023191;28;20040;-72
2021/01/11 08:36:18;;;;;;;20.52;9.80;;;;;;;;;;5024831;28;20030;-71
2021/01/11 08:39:03;;;;;;;22.17;11.02;;;;;;;;;;5027767;28;20032;-72
2021/01/11 08:41:32;;;;;;;23.63;11.55;;;;;;;;;;5025623;28;20025;-72
2021/01/11 08:43:58;;;;;;;18.08;9.65;;;;;;;;;;5025914;28;20117;-71
2021/01/11 08:46:24;;;;;;;25.90;10.95;;;;;;;;;;5027217;28;20029;-72
2021/01/11 08:48:50;;;;;;;25.88;11.05;;;;;;;;;;5030338;28;20064;-72
2021/01/11 08:51:25;;;;;;;18.52;8.65;;;;;;;;;;5037465;28;20037;-71
2021/01/11 08:53:51;;;;;;;19.58;5.78;;;;;;;;;;5025647;28;20069;-72
2021/01/11 08:56:27;;;;;;;16.52;4.80;;;;;;;;;;5024879;28;20033;-71
2021/01/11 08:58:54;;;;;;;12.77;3.92;;;;;;;;;;5028342;28;20171;-73
2021/01/11 09:01:26;;;;;;;11.32;2.80;;;;;;;;;;5027604;28;20017;-71
2021/01/11 09:03:58;;;;;;;7.82;3.15;;;;;;;;;;5023819;28;20096;-71
2021/01/11 09:06:43;;;;;;;5.97;2.13;;;;;;;;;;5030890;28;20063;-69
2021/01/11 09:09:09;;;;;;;11.38;3.28;;;;;;;;;;5022340;28;20038;-70
2021/01/11 09:11:35;;;;;;;6.43;2.50;;;;;;;;;;5021830;28;20018;-69
2021/01/11 09:14:05;;;;;;;15.98;3.90;;;;;;;;;;5026195;28;20064;-72
2021/01/11 09:16:32;;;;;;;18.45;3.78;;;;;;;;;;5030316;28;20040;-71
2021/01/11 09:19:18;;;;;;;9.52;3.40;;;;;;;;;;5024167;28;20682;-71
2021/01/11 09:21:45;;;;;;;9.02;3.47;;;;;;;;;;5032541;28;20366;-70
2021/01/11 09:24:12;;;;;;;25.55;4.97;;;;;;;;;;5028794;28;20020;-72
2021/01/11 09:26:38;;;;;;;11.20;4.13;;;;;;;;;;5033269;28;20029;-71
2021/01/11 09:29:05;;;;;;;13.07;5.00;;;;;;;;;;5026558;28;20087;-72
2021/01/11 09:31:32;;;;;;;14.25;4.32;;;;;;;;;;5033452;28;20494;-72
2021/01/11 09:33:58;;;;;;;18.25;4.45;;;;;;;;;;5023682;28;20022;-71
2021/01/11 09:36:24;;;;;;;19.40;5.47;;;;;;;;;;5018010;28;20052;-71
2021/01/11 09:38:51;;;;;;;11.85;3.90;;;;;;;;;;5020380;28;20026;-70
2021/01/11 09:41:18;;;;;;;12.32;4.03;;;;;;;;;;5027523;28;20017;-72
2021/01/11 09:43:44;;;;;;;9.85;4.35;;;;;;;;;;5021147;28;21041;-72
2021/01/11 09:46:10;;;;;;;11.07;4.13;;;;;;;;;;5025119;28;20045;-71
2021/01/11 09:48:37;;;;;;;16.55;5.15;;;;;;;;;;5027243;28;20442;-73
2021/01/11 09:51:04;;;;;;;12.00;4.38;;;;;;;;;;5017712;28;20030;-71
2021/01/11 09:53:30;;;;;;;7.22;2.17;;;;;;;;;;5030454;28;20049;-71
2021/01/11 09:55:56;;;;;;;10.15;3.35;;;;;;;;;;5029471;28;20029;-73
2021/01/11 09:58:22;;;;;;;15.43;4.28;;;;;;;;;;5032278;28;20022;-73
2021/01/11 10:00:48;;;;;;;17.48;3.83;;;;;;;;;;5029852;28;20029;-72
2021/01/11 10:03:14;;;;;;;16.38;4.03;;;;;;;;;;5023798;28;20064;-72
2021/01/11 10:05:40;;;;;;;15.35;3.70;;;;;;;;;;5024483;28;20037;-73
2021/01/11 10:08:08;;;;;;;10.90;3.33;;;;;;;;;;5024504;28;21139;-72
2021/01/11 10:10:34;;;;;;;12.60;4.20;;;;;;;;;;5022500;28;20076;-73
2021/01/11 10:13:00;;;;;;;6.45;3.13;;;;;;;;;;5020481;28;20041;-73
2021/01/11 10:15:26;;;;;;;13.23;2.65;;;;;;;;;;5024803;28;20026;-72
2021/01/11 10:17:52;;;;;;;15.73;4.47;;;;;;;;;;5033693;28;20032;-72
2021/01/11 10:20:18;;;;;;;13.43;3.80;;;;;;;;;;5020787;28;20025;-72
2021/01/11 10:22:45;;;;;;;6.45;2.60;;;;;;;;;;5018475;28;20034;-71
2021/01/11 10:25:16;;;;;;;18.83;3.80;;;;;;;;;;5022988;28;20506;-71
2021/01/11 10:27:43;;;;;;;10.35;3.28;;;;;;;;;;5022818;28;20053;-70
2021/01/11 10:30:09;;;;;;;8.57;3.33;;;;;;;;;;5025746;28;20086;-71
2021/01/11 10:32:35;;;;;;;12.90;3.28;;;;;;;;;;5035628;28;20021;-72
2021/01/11 10:35:01;;;;;;;7.15;3.33;;;;;;;;;;5040678;28;20346;-71
2021/01/11 10:37:27;;;;;;;12.43;3.63;;;;;;;;;;5031770;28;20110;-73
2021/01/11 10:39:53;;;;;;;13.90;3.90;;;;;;;;;;5033656;28;20449;-70
2021/01/11 10:42:19;;;;;;;6.97;2.72;;;;;;;;;;5025685;28;20324;-71
2021/01/11 10:44:45;;;;;;;11.00;3.78;;;;;;;;;;5030113;28;20037;-71
2021/01/11 10:47:11;;;;;;;16.50;5.45;;;;;;;;;;5026647;28;20044;-71
2021/01/11 10:49:37;;;;;;;14.15;3.67;;;;;;;;;;5032501;28;20060;-73
2021/01/11 10:52:04;;;;;;;13.18;3.03;;;;;;;;;;5019590;28;20209;-74
2021/01/11 10:54:30;;;;;;;17.77;4.63;;;;;;;;;;5030680;28;20025;-71
2021/01/11 10:56:56;;;;;;;13.88;5.32;;;;;;;;;;5035815;28;20100;-72
2021/01/11 10:59:23;;;;;;;9.07;3.90;;;;;;;;;;5029678;28;20017;-69
2021/01/11 11:01:50;;;;;;;9.23;4.00;;;;;;;;;;5022128;28;20018;-71
2021/01/11 11:04:16;;;;;;;14.57;3.83;;;;;;;;;;5020735;28;20018;-71
2021/01/11 11:06:42;;;;;;;12.38;3.78;;;;;;;;;;5027050;28;20045;-71
2021/01/11 11:09:08;;;;;;;16.55;4.22;;;;;;;;;;5030079;28;20025;-72
2021/01/11 11:11:34;;;;;;;14.52;4.55;;;;;;;;;;5037570;28;20033;-72
2021/01/11 11:14:00;;;;;;;10.63;3.15;;;;;;;;;;5025293;28;20026;-68
2021/01/11 11:16:26;;;;;;;8.18;4.30;;;;;;;;;;5033333;28;20124;-71
2021/01/11 11:18:53;;;;;;;6.15;2.55;;;;;;;;;;5030623;28;20020;-70
2021/01/11 11:21:19;;;;;;;16.48;4.40;;;;;;;;;;5027912;28;20075;-71
2021/01/11 11:23:45;;;;;;;14.00;3.85;;;;;;;;;;5023065;28;20029;-72
2021/01/11 11:26:11;;;;;;;11.88;4.47;;;;;;;;;;5031172;28;20025;-72
2021/01/11 11:28:38;;;;;;;20.92;4.38;;;;;;;;;;5025123;28;20087;-72
2021/01/11 11:31:04;;;;;;;13.65;3.88;;;;;;;;;;5024738;28;20108;-71
2021/01/11 11:33:30;;;;;;;20.70;4.03;;;;;;;;;;5020258;28;20029;-72
2021/01/11 11:35:56;;;;;;;14.32;4.47;;;;;;;;;;5029627;28;20037;-72
2021/01/11 11:38:22;;;;;;;29.65;2.63;;;;;;;;;;5035629;28;20044;-72
2021/01/11 11:40:49;;;;;;;8.43;2.22;;;;;;;;;;5023641;28;20079;-70
2021/01/11 11:43:15;;;;;;;9.63;3.25;;;;;;;;;;5026950;28;20026;-71
2021/01/11 11:45:45;;;;;;;20.75;4.18;;;;;;;;;;5027931;28;20542;-72
2021/01/11 11:48:12;;;;;;;9.65;2.80;;;;;;;;;;5027636;28;20033;-71
2021/01/11 11:50:38;;;;;;;14.45;2.83;;;;;;;;;;5028774;28;20570;-71
2021/01/11 11:53:04;;;;;;;10.52;2.50;;;;;;;;;;5023485;28;20044;-69
2021/01/11 11:55:30;;;;;;;10.15;2.60;;;;;;;;;;5026336;28;20096;-71
2021/01/11 11:57:56;;;;;;;11.10;3.65;;;;;;;;;;5033778;28;20029;-72
2021/01/11 12:00:22;;;;;;;9.98;3.17;;;;;;;;;;5027445;28;20021;-72
2021/01/11 12:02:48;;;;;;;13.15;4.45;;;;;;;;;;5028680;28;20445;-71
2021/01/11 12:05:18;;;;;;;13.15;2.03;;;;;;;;;;5030048;28;20032;-70
2021/01/11 12:07:47;;;;;;;12.82;2.60;;;;;;;;;;5029716;28;20056;-70
2021/01/11 12:10:13;;;;;;;11.13;3.17;;;;;;;;;;5028646;28;20107;-70
2021/01/11 12:12:39;;;;;;;11.38;3.58;;;;;;;;;;5026541;28;20025;-71
2021/01/11 12:15:07;;;;;;;15.38;3.13;;;;;;;;;;5030841;28;20056;-72
2021/01/11 12:17:33;;;;;;;26.20;4.13;;;;;;;;;;5030351;28;20017;-71
2021/01/11 12:19:59;;;;;;;11.45;2.42;;;;;;;;;;5045238;28;20021;-71
2021/01/11 12:22:26;;;;;;;15.55;3.58;;;;;;;;;;5022363;28;20063;-71
2021/01/11 12:24:52;;;;;;;11.23;2.45;;;;;;;;;;5038332;28;20025;-71
2021/01/11 12:27:18;;;;;;;10.30;2.13;;;;;;;;;;5029504;28;20056;-71
2021/01/11 12:29:45;;;;;;;11.70;2.75;;;;;;;;;;5031080;28;20035;-71
2021/01/11 12:32:11;;;;;;;8.02;2.17;;;;;;;;;;5026425;28;20116;-73
2021/01/11 12:34:42;;;;;;;9.40;2.50;;;;;;;;;;5031643;28;20033;-72
2021/01/11 12:37:09;;;;;;;15.48;3.33;;;;;;;;;;5034198;28;20091;-72
2021/01/11 12:39:35;;;;;;;11.50;2.42;;;;;;;;;;5032820;28;20171;-72
2021/01/11 12:42:04;;;;;;;15.13;2.45;;;;;;;;;;5021785;28;20237;-70
2021/01/11 12:44:30;;;;;;;16.67;2.95;;;;;;;;;;5031710;28;20491;-72
2021/01/11 12:46:56;;;;;;;13.57;3.72;;;;;;;;;;5024167;28;20478;-71
2021/01/11 12:49:22;;;;;;;12.18;2.58;;;;;;;;;;5049456;28;20524;-71
2021/01/11 12:51:48;;;;;;;10.85;2.38;;;;;;;;;;5034218;28;20071;-72
2021/01/11 12:54:14;;;;;;;14.55;2.63;;;;;;;;;;5034713;28;20531;-71
2021/01/11 12:56:40;;;;;;;9.88;1.90;;;;;;;;;;5030834;28;20033;-75
2021/01/11 12:59:07;;;;;;;16.48;3.40;;;;;;;;;;5035805;28;20029;-70
2021/01/11 13:01:34;;;;;;;9.43;3.00;;;;;;;;;;5034005;28;20441;-71
2021/01/11 13:04:01;;;;;;;12.13;2.58;;;;;;;;;;5045855;28;20566;-72
2021/01/11 13:06:31;;;;;;;13.30;2.58;;;;;;;;;;5041578;28;20053;-71
2021/01/11 13:08:57;;;;;;;8.75;2.60;;;;;;;;;;5031658;28;20029;-73
2021/01/11 13:11:24;;;;;;;19.98;2.78;;;;;;;;;;5032407;28;20025;-68
2021/01/11 13:13:51;;;;;;;16.63;3.58;;;;;;;;;;5032757;28;20544;-71
2021/01/11 13:16:26;;;;;;;10.77;2.60;;;;;;;;;;5030038;28;20049;-71
2021/01/11 13:18:53;;;;;;;17.10;3.17;;;;;;;;;;5026174;28;20030;-72
2021/01/11 13:21:20;;;;;;;13.43;2.35;;;;;;;;;;5020718;28;20091;-71
2021/01/11 13:23:46;;;;;;;6.13;2.10;;;;;;;;;;5022716;28;20416;-71
2021/01/11 13:26:12;;;;;;;14.85;2.58;;;;;;;;;;5025130;28;20131;-71
2021/01/11 13:28:38;;;;;;;5.50;1.77;;;;;;;;;;5029129;28;20064;-70
2021/01/11 13:31:07;;;;;;;12.48;2.45;;;;;;;;;;5029478;28;20094;-74
2021/01/11 13:33:34;;;;;;;10.73;3.03;;;;;;;;;;5026618;28;20028;-70
2021/01/11 13:36:00;;;;;;;17.13;3.03;;;;;;;;;;5027870;28;20544;-72
2021/01/11 13:38:27;;;;;;;14.38;2.60;;;;;;;;;;5029377;28;20022;-71
2021/01/11 13:40:53;;;;;;;13.75;2.53;;;;;;;;;;5028337;28;20029;-72
2021/01/11 13:43:20;;;;;;;5.88;1.92;;;;;;;;;;5028931;28;20037;-77
2021/01/11 13:45:46;;;;;;;9.43;2.58;;;;;;;;;;5032587;28;20022;-72
2021/01/11 13:48:13;;;;;;;7.18;2.17;;;;;;;;;;5027846;28;20033;-70
2021/01/11 13:50:39;;;;;;;10.05;2.72;;;;;;;;;;5029499;28;20022;-71
2021/01/11 13:53:08;;;;;;;15.40;3.03;;;;;;;;;;5044140;28;20030;-70
2021/01/11 13:55:34;;;;;;;11.07;1.70;;;;;;;;;;5031301;28;20145;-72
2021/01/11 13:58:00;;;;;;;7.80;2.70;;;;;;;;;;5028918;28;20017;-72
2021/01/11 14:00:26;;;;;;;12.48;2.60;;;;;;;;;;5029106;28;20513;-70
2021/01/11 14:02:53;;;;;;;8.57;1.70;;;;;;;;;;5019657;28;20095;-72
2021/01/11 14:05:19;;;;;;;6.35;2.00;;;;;;;;;;5034808;28;20112;-71
2021/01/11 14:07:46;;;;;;;9.23;2.17;;;;;;;;;;5029973;28;20064;-72
2021/01/11 14:10:14;;;;;;;8.00;2.08;;;;;;;;;;5022758;28;20530;-72
2021/01/11 14:12:41;;;;;;;10.90;2.40;;;;;;;;;;5023251;28;20029;-70
2021/01/11 14:15:07;;;;;;;14.13;3.78;;;;;;;;;;5036343;28;20038;-71
2021/01/11 14:17:34;;;;;;;22.50;2.47;;;;;;;;;;5029393;28;20034;-70
2021/01/11 14:20:00;;;;;;;14.68;2.85;;;;;;;;;;5029402;28;20021;-72
2021/01/11 14:22:26;;;;;;;14.20;3.30;;;;;;;;;;5030154;28;20017;-72
2021/01/11 14:24:52;;;;;;;8.50;2.25;;;;;;;;;;5031399;28;20026;-71
2021/01/11 14:27:18;;;;;;;9.23;2.70;;;;;;;;;;5023217;28;20041;-71
2021/01/11 14:29:44;;;;;;;9.00;2.30;;;;;;;;;;5028959;28;20029;-71
2021/01/11 14:32:10;;;;;;;14.60;2.03;;;;;;;;;;5022383;28;20397;-71